Time;durP1;ratioP1;P1;durP2;ratioP2;P2;SDS_P1;SDS_P2;PMS_P1;PMS_P2;Temp;Humidity;BMP_temperature;BMP_pressure;BME280_temperature;BME280_humidity;BME280_pressure;Samples;Min_cycle;Max_cycle;Signal;HPM_P1;HPM_P2
2022/04/07 00:00:52;;;;;;;3.08;1.98;;;;;;;21.93;37.74;98846.47;5043389;28;20051;-70
2022/04/07 00:03:18;;;;;;;2.75;1.85;;;;;;;21.97;37.92;98849.44;5069974;28;20047;-68
2022/04/07 00:05:45;;;;;;;1.75;1.60;;;;;;;21.94;37.64;98848.09;5038344;28;20051;-70
2022/04/07 00:08:10;;;;;;;2.85;1.90;;;;;;;21.89;37.87;98832.09;5075585;28;21769;-70
2022/04/07 00:10:36;;;;;;;2.10;1.65;;;;;;;21.91;37.75;98842.47;5042404;28;20165;-69
2022/04/07 00:13:03;;;;;;;2.20;1.63;;;;;;;21.85;37.79;98836.28;5066782;28;20086;-70
2022/04/07 00:15:29;;;;;;;3.67;2.00;;;;;;;21.87;37.71;98841.31;5026954;28;20160;-70
2022/04/07 00:17:55;;;;;;;2.40;1.73;;;;;;;21.84;37.93;98833.88;5071742;28;20139;-70
2022/04/07 00:20:21;;;;;;;2.72;1.60;;;;;;;21.80;37.72;98814.19;5066066;28;20051;-70
2022/04/07 00:22:48;;;;;;;2.88;1.80;;;;;;;21.82;37.80;98799.66;5047465;28;20051;-70
2022/04/07 00:25:13;;;;;;;3.53;2.05;;;;;;;21.83;37.73;98808.41;5069477;28;20043;-70
2022/04/07 00:27:39;;;;;;;3.70;1.98;;;;;;;21.72;37.93;98775.66;5039705;28;20028;-70
2022/04/07 00:30:06;;;;;;;2.67;1.75;;;;;;;21.77;38.04;98796.13;5076971;28;20545;-70
2022/04/07 00:32:32;;;;;;;3.10;1.80;;;;;;;21.79;37.71;98794.06;5025853;28;20032;-70
2022/04/07 00:34:57;;;;;;;2.70;1.70;;;;;;;21.71;37.84;98779.34;5069189;28;20046;-70
2022/04/07 00:37:24;;;;;;;2.85;1.90;;;;;;;21.74;37.81;98783.38;5024793;28;20035;-69
2022/04/07 00:39:52;;;;;;;2.28;1.35;;;;;;;21.74;37.95;98776.22;5075006;28;20137;-70
2022/04/07 00:42:18;;;;;;;2.95;1.70;;;;;;;21.70;37.79;98761.84;5006575;28;20043;-70
2022/04/07 00:44:44;;;;;;;2.80;1.60;;;;;;;21.70;37.98;98757.34;5054731;28;20044;-70
2022/04/07 00:47:13;;;;;;;2.28;1.70;;;;;;;21.59;37.90;98739.72;5020579;28;20044;-70
2022/04/07 00:49:38;;;;;;;3.45;1.70;;;;;;;21.68;37.86;98756.00;5056782;28;20044;-69
2022/04/07 00:52:06;;;;;;;2.67;1.98;;;;;;;21.65;37.79;98745.88;5072358;28;20629;-70
2022/04/07 00:54:32;;;;;;;2.92;1.98;;;;;;;21.64;38.00;98750.38;5024161;28;20036;-70
2022/04/07 00:56:59;;;;;;;2.05;1.60;;;;;;;21.63;37.83;98740.81;5071904;28;20048;-70
2022/04/07 00:59:25;;;;;;;3.20;1.70;;;;;;;21.62;37.89;98733.94;5023682;28;20040;-70
2022/04/07 01:01:51;;;;;;;4.57;1.95;;;;;;;21.58;38.06;98732.00;5073902;28;20056;-70
2022/04/07 01:04:16;;;;;;;3.25;1.92;;;;;;;21.52;37.82;98715.22;5021834;28;20032;-70
2022/04/07 01:06:43;;;;;;;1.92;1.60;;;;;;;21.59;38.06;98715.06;5057327;28;20105;-70
2022/04/07 01:09:09;;;;;;;3.20;1.88;;;;;;;21.57;37.97;98706.56;5069194;28;20664;-70
2022/04/07 01:11:37;;;;;;;2.15;1.50;;;;;;;21.53;38.08;98697.47;5039420;28;20496;-70
2022/04/07 01:14:03;;;;;;;3.03;1.80;;;;;;;21.55;37.91;98701.53;5070784;28;20036;-70
2022/04/07 01:16:30;;;;;;;3.75;1.70;;;;;;;21.54;37.89;98707.84;5041083;28;20465;-70
2022/04/07 01:18:59;;;;;;;1.70;1.60;;;;;;;21.54;37.95;98699.09;5067491;28;20040;-70
2022/04/07 01:21:26;;;;;;;1.63;1.52;;;;;;;21.47;37.68;98680.72;5004663;28;20032;-69
2022/04/07 01:24:11;;;;;;;4.57;1.90;;;;;;;21.52;38.02;98694.03;5071722;28;20048;-70
2022/04/07 01:26:44;;;;;;;2.13;1.75;;;;;;;21.50;38.08;98674.94;5039526;28;20063;-70
2022/04/07 01:29:13;;;;;;;2.97;1.98;;;;;;;21.48;37.88;98666.44;5071191;28;20067;-70
2022/04/07 01:31:39;;;;;;;2.00;1.63;;;;;;;21.49;37.77;98662.75;5035719;28;20047;-70
2022/04/07 01:34:11;;;;;;;2.03;1.83;;;;;;;21.47;38.02;98662.19;5073513;28;20028;-70
2022/04/07 01:36:40;;;;;;;2.22;1.85;;;;;;;21.49;38.01;98665.41;5025291;28;20536;-70
2022/04/07 01:39:07;;;;;;;4.82;1.80;;;;;;;21.45;37.90;98652.88;5070159;28;20691;-70
2022/04/07 01:41:35;;;;;;;1.58;1.45;;;;;;;21.42;37.93;98647.03;5044571;28;20713;-69
2022/04/07 01:44:03;;;;;;;1.58;1.40;;;;;;;21.45;37.96;98639.66;5052761;28;20040;-70
2022/04/07 01:46:29;;;;;;;1.65;1.38;;;;;;;21.44;37.78;98632.75;5049352;28;20040;-70
2022/04/07 01:48:56;;;;;;;2.22;1.65;;;;;;;21.42;38.09;98639.09;5058332;28;20044;-70
2022/04/07 01:51:24;;;;;;;1.92;1.55;;;;;;;21.43;37.83;98637.25;5063023;28;20141;-69
2022/04/07 01:53:50;;;;;;;1.75;1.50;;;;;;;21.37;37.67;98609.91;5035542;28;20044;-70
2022/04/07 01:56:18;;;;;;;2.30;1.70;;;;;;;21.23;38.02;98586.63;5048459;28;20147;-70
2022/04/07 01:58:45;;;;;;;2.33;1.65;;;;;;;21.41;37.79;98613.66;5034821;28;20032;-70
2022/04/07 02:01:11;;;;;;;2.63;1.50;;;;;;;21.36;37.90;98612.75;5064356;28;20048;-70
2022/04/07 02:03:37;;;;;;;1.92;1.40;;;;;;;21.39;38.14;98618.41;5037150;28;20052;-70
2022/04/07 02:06:13;;;;;;;2.03;1.52;;;;;;;21.38;37.86;98626.59;5066896;28;20055;-68
2022/04/07 02:08:38;;;;;;;1.50;1.40;;;;;;;21.37;37.94;98622.34;5024701;28;20036;-68
2022/04/07 02:11:04;;;;;;;2.22;1.35;;;;;;;21.33;37.77;98607.97;5051611;28;20044;-68
2022/04/07 02:13:32;;;;;;;1.27;1.17;;;;;;;21.37;37.77;98601.97;5049966;28;20047;-68
2022/04/07 02:15:58;;;;;;;1.50;1.40;;;;;;;21.35;37.89;98597.94;5062420;28;20228;-68
2022/04/07 02:18:23;;;;;;;2.35;1.52;;;;;;;21.32;37.98;98593.94;5058304;28;20870;-68
2022/04/07 02:20:49;;;;;;;1.20;1.10;;;;;;;21.34;37.81;98572.50;5029053;28;20460;-70
2022/04/07 02:23:15;;;;;;;3.17;1.67;;;;;;;21.31;37.97;98584.38;5047793;28;20085;-68
2022/04/07 02:25:40;;;;;;;2.67;1.50;;;;;;;21.29;38.07;98567.16;5022809;28;20037;-68
2022/04/07 02:28:06;;;;;;;2.47;1.40;;;;;;;21.30;37.93;98569.53;5074671;28;20047;-68
2022/04/07 02:30:31;;;;;;;1.88;1.75;;;;;;;21.32;38.08;98577.25;5022342;28;20070;-68
2022/04/07 02:32:57;;;;;;;2.15;1.52;;;;;;;21.25;37.85;98550.94;5064971;28;20051;-68
2022/04/07 02:35:22;;;;;;;1.83;1.30;;;;;;;21.28;38.04;98566.34;5032039;28;20047;-68
2022/04/07 02:37:48;;;;;;;3.83;1.90;;;;;;;21.26;38.04;98554.41;5068405;28;20040;-70
2022/04/07 02:40:14;;;;;;;2.10;1.58;;;;;;;21.27;37.80;98548.06;5025797;28;20778;-70
2022/04/07 02:42:39;;;;;;;1.67;1.58;;;;;;;21.23;38.00;98538.97;5066624;28;20043;-68
2022/04/07 02:45:05;;;;;;;2.35;1.38;;;;;;;21.27;37.81;98524.25;5072664;28;20494;-70
2022/04/07 02:47:33;;;;;;;4.18;1.67;;;;;;;21.25;37.92;98527.13;5023908;28;20566;-68
2022/04/07 02:49:59;;;;;;;2.63;1.90;;;;;;;21.25;37.86;98531.63;5071900;28;20040;-70
2022/04/07 02:52:24;;;;;;;2.35;1.58;;;;;;;21.24;38.00;98514.94;5036117;28;20093;-67
2022/04/07 02:54:50;;;;;;;1.73;1.63;;;;;;;21.23;38.08;98509.88;5073331;28;20044;-68
2022/04/07 02:57:15;;;;;;;2.75;1.30;;;;;;;21.23;37.92;98494.78;5024663;28;20059;-68
2022/04/07 02:59:41;;;;;;;2.22;1.40;;;;;;;21.21;37.85;98488.13;5068607;28;20040;-68
2022/04/07 03:02:06;;;;;;;2.10;1.35;;;;;;;21.16;37.96;98464.22;5050744;28;20044;-68
2022/04/07 03:04:32;;;;;;;2.60;1.50;;;;;;;21.20;37.89;98474.09;5036574;28;20989;-68
2022/04/07 03:06:57;;;;;;;1.60;1.50;;;;;;;21.17;37.77;98479.88;5043063;28;20041;-70
2022/04/07 03:09:23;;;;;;;2.38;1.48;;;;;;;21.18;37.89;98460.28;5041287;28;20490;-68
2022/04/07 03:11:49;;;;;;;3.60;1.75;;;;;;;21.15;37.81;98452.03;5077008;28;20598;-68
2022/04/07 03:14:15;;;;;;;1.98;1.40;;;;;;;21.16;38.04;98441.22;5027183;28;20028;-67
2022/04/07 03:16:41;;;;;;;1.88;1.45;;;;;;;21.15;37.98;98434.31;5076017;28;21227;-71
2022/04/07 03:19:06;;;;;;;1.70;1.60;;;;;;;21.15;37.72;98433.53;5069330;28;20085;-68
2022/04/07 03:21:32;;;;;;;2.38;1.30;;;;;;;20.97;37.85;98410.81;5044051;28;20378;-68
2022/04/07 03:23:57;;;;;;;2.85;1.80;;;;;;;21.11;37.67;98427.94;5072194;28;20037;-70
2022/04/07 03:26:23;;;;;;;1.55;1.45;;;;;;;21.12;37.89;98413.66;5010660;28;20040;-68
2022/04/07 03:28:49;;;;;;;2.13;1.40;;;;;;;21.10;37.95;98410.44;5069995;28;20060;-68
2022/04/07 03:31:14;;;;;;;2.20;1.50;;;;;;;21.04;38.08;98388.44;5030591;28;20113;-71
2022/04/07 03:33:40;;;;;;;2.30;1.60;;;;;;;21.07;37.91;98395.88;5077328;28;20036;-70
2022/04/07 03:36:06;;;;;;;1.60;1.30;;;;;;;21.04;38.12;98392.91;5038757;28;20032;-70
2022/04/07 03:38:31;;;;;;;1.52;1.38;;;;;;;21.01;38.05;98406.66;5067418;28;20024;-70
2022/04/07 03:40:57;;;;;;;1.85;1.67;;;;;;;21.00;38.07;98405.03;5017635;28;20043;-71
2022/04/07 03:43:22;;;;;;;1.75;1.30;;;;;;;20.97;38.08;98397.56;5055721;28;20040;-70
2022/04/07 03:45:49;;;;;;;2.65;1.48;;;;;;;20.96;38.06;98393.34;5044021;28;20639;-70
2022/04/07 03:48:14;;;;;;;2.13;1.45;;;;;;;20.86;38.24;98385.28;5044106;28;20390;-70
2022/04/07 03:50:40;;;;;;;3.25;1.60;;;;;;;20.91;38.16;98396.72;5070949;28;20070;-71
2022/04/07 03:53:06;;;;;;;1.88;1.33;;;;;;;20.89;38.23;98374.22;5038478;28;20044;-71
2022/04/07 03:55:32;;;;;;;2.50;1.52;;;;;;;20.87;38.03;98387.69;5074201;28;20032;-67
2022/04/07 03:57:57;;;;;;;2.28;1.40;;;;;;;20.84;38.13;98382.09;5037266;28;20063;-68
2022/04/07 04:00:25;;;;;;;2.65;1.40;;;;;;;20.81;38.19;98378.84;5057024;28;20032;-70
2022/04/07 04:02:51;;;;;;;3.80;1.70;;;;;;;20.80;38.27;98365.88;5028491;28;20142;-70
2022/04/07 04:05:18;;;;;;;1.60;1.10;;;;;;;20.78;38.33;98360.03;5069797;28;20036;-70
2022/04/07 04:07:43;;;;;;;2.17;1.67;;;;;;;20.73;38.26;98352.84;5042107;28;20689;-68
2022/04/07 04:10:09;;;;;;;2.92;1.63;;;;;;;20.71;38.46;98349.66;5073503;28;20032;-70
2022/04/07 04:12:35;;;;;;;2.40;1.50;;;;;;;20.71;38.33;98340.91;5045236;28;20648;-68
2022/04/07 04:15:04;;;;;;;1.52;1.40;;;;;;;20.69;38.49;98335.06;5071980;28;20054;-68
2022/04/07 04:17:30;;;;;;;2.38;1.55;;;;;;;20.67;38.56;98335.31;5043808;28;20514;-68
2022/04/07 04:19:56;;;;;;;1.95;1.30;;;;;;;20.68;38.43;98331.63;5049748;28;20708;-68
2022/04/07 04:22:21;;;;;;;2.67;1.45;;;;;;;20.67;38.52;98316.81;5043544;28;20040;-68
2022/04/07 04:24:48;;;;;;;1.77;1.60;;;;;;;20.63;38.47;98302.47;5041178;28;20486;-68
2022/04/07 04:27:14;;;;;;;2.40;1.23;;;;;;;20.66;38.51;98295.91;5055689;28;20402;-69
2022/04/07 04:29:43;;;;;;;2.25;1.48;;;;;;;20.67;38.41;98284.28;5037313;28;20040;-68
2022/04/07 04:32:10;;;;;;;2.28;1.48;;;;;;;20.68;38.54;98276.09;5074327;28;20036;-70
2022/04/07 04:34:36;;;;;;;1.65;1.27;;;;;;;20.65;38.49;98281.09;5023560;28;20028;-71
2022/04/07 04:37:01;;;;;;;2.33;1.70;;;;;;;20.64;38.41;98266.25;5030702;28;20068;-71
2022/04/07 04:39:27;;;;;;;1.60;1.50;;;;;;;20.69;38.41;98264.47;5071140;28;20655;-68
2022/04/07 04:41:53;;;;;;;1.67;1.40;;;;;;;20.63;38.32;98257.50;5038451;28;20396;-69
2022/04/07 04:44:18;;;;;;;1.55;1.40;;;;;;;20.67;38.37;98266.56;5073649;28;20097;-68
2022/04/07 04:46:44;;;;;;;2.72;1.80;;;;;;;20.69;38.40;98263.69;5033074;28;20032;-69
2022/04/07 04:49:09;;;;;;;2.15;1.73;;;;;;;20.67;38.37;98258.63;5076558;28;20032;-69
2022/04/07 04:51:35;;;;;;;1.75;1.40;;;;;;;20.60;38.21;98223.63;5024290;28;20040;-69
2022/04/07 04:54:00;;;;;;;2.65;1.65;;;;;;;20.67;38.49;98244.63;5055311;28;20616;-69
2022/04/07 04:56:28;;;;;;;2.90;1.58;;;;;;;20.65;38.38;98231.66;5054158;28;20035;-69
2022/04/07 04:58:54;;;;;;;2.60;1.48;;;;;;;20.61;38.54;98212.00;5057989;28;20036;-69
2022/04/07 05:01:20;;;;;;;1.67;1.50;;;;;;;20.61;38.43;98212.00;5064440;28;20031;-68
2022/04/07 05:03:46;;;;;;;2.80;1.38;;;;;;;20.61;38.50;98213.84;5042915;28;20034;-69
2022/04/07 05:06:11;;;;;;;1.88;1.50;;;;;;;20.61;38.48;98211.22;5054876;28;20037;-69
2022/04/07 05:08:37;;;;;;;2.38;1.67;;;;;;;20.60;38.50;98189.25;5021179;28;20554;-69
2022/04/07 05:11:03;;;;;;;2.92;1.30;;;;;;;20.59;38.53;98192.16;5071917;28;20752;-69
2022/04/07 05:13:28;;;;;;;2.58;1.50;;;;;;;20.59;38.55;98190.31;5036702;28;20036;-69
2022/04/07 05:15:54;;;;;;;1.75;1.50;;;;;;;20.52;38.49;98177.28;5052798;28;20036;-69
2022/04/07 05:18:19;;;;;;;3.42;1.40;;;;;;;20.35;39.60;98176.53;5036211;28;20053;-71
2022/04/07 05:20:45;;;;;;;6.30;1.90;;;;;;;20.46;39.56;98182.75;5070550;28;20036;-70
2022/04/07 05:23:10;;;;;;;7.35;1.70;;;;;;;20.46;39.75;98186.19;5025040;28;20066;-75
2022/04/07 05:25:36;;;;;;;3.05;1.30;;;;;;;20.47;39.58;98177.25;5069946;28;20042;-75
2022/04/07 05:28:02;;;;;;;5.85;1.58;;;;;;;20.49;39.59;98182.28;5056973;28;20033;-74
2022/04/07 05:30:27;;;;;;;5.32;1.48;;;;;;;20.49;39.58;98179.66;5018967;28;20036;-74
2022/04/07 05:32:53;;;;;;;1.33;1.20;;;;;;;20.52;39.43;98182.59;5056341;28;20043;-73
2022/04/07 05:35:19;;;;;;;9.23;1.60;;;;;;;21.04;38.63;98183.91;5030171;28;20468;-74
2022/04/07 05:37:44;;;;;;;4.38;1.45;;;;;;;21.69;37.27;98164.28;5068308;28;20034;-74
2022/04/07 05:40:12;;;;;;;8.15;1.85;;;;;;;22.49;36.48;98170.25;5022788;28;20064;-74
2022/04/07 05:42:37;;;;;;;1.60;1.10;;;;;;;22.98;35.62;98183.09;5053788;28;20617;-74
2022/04/07 05:45:04;;;;;;;0.90;0.90;;;;;;;23.16;35.17;98190.56;5033800;28;20106;-74
2022/04/07 05:47:29;;;;;;;3.03;1.48;;;;;;;23.06;35.21;98186.06;5065216;28;20052;-74
2022/04/07 05:49:56;;;;;;;4.72;1.50;;;;;;;22.93;35.31;98197.19;5019991;28;20468;-74
2022/04/07 05:52:21;;;;;;;4.72;1.58;;;;;;;;;;5066252;28;20044;-74
2022/04/07 05:54:47;;;;;;;3.80;1.45;;;;;;;22.73;35.93;98192.59;5037123;28;20186;-73
2022/04/07 05:57:12;;;;;;;2.55;1.40;;;;;;;22.60;35.90;98180.63;5056046;28;20020;-74
2022/04/07 05:59:38;;;;;;;1.83;1.17;;;;;;;22.50;36.42;98180.59;5064883;28;20042;-74
2022/04/07 06:02:04;;;;;;;2.45;1.63;;;;;;;22.42;36.23;98177.66;5035210;28;20664;-74
2022/04/07 06:04:30;;;;;;;1.98;1.10;;;;;;;22.29;36.81;98189.56;5060401;28;20113;-74
2022/04/07 06:06:55;;;;;;;4.25;1.20;;;;;;;22.19;37.01;98192.16;5030471;28;20040;-74
2022/04/07 06:09:21;;;;;;;2.90;1.60;;;;;;;22.06;37.14;98185.44;5065720;28;20047;-74
2022/04/07 06:11:46;;;;;;;3.40;1.38;;;;;;;22.01;37.07;98190.69;5020111;28;20036;-74
2022/04/07 06:14:12;;;;;;;2.83;1.23;;;;;;;21.86;37.41;98195.91;5053908;28;20094;-74
2022/04/07 06:16:37;;;;;;;2.33;1.30;;;;;;;22.05;37.21;98206.91;5008248;28;20929;-72
2022/04/07 06:19:03;;;;;;;2.28;1.17;;;;;;;22.28;37.18;98207.31;5025455;28;20162;-71
2022/04/07 06:21:33;;;;;;;2.95;1.20;;;;;;;22.54;37.01;98218.81;5050280;28;20040;-70
2022/04/07 06:23:59;;;;;;;2.08;1.33;;;;;;;22.80;36.69;98217.03;5012314;28;20048;-70
2022/04/07 06:26:25;;;;;;;2.33;1.50;;;;;;;22.86;36.27;98205.41;5057003;28;20101;-70
2022/04/07 06:28:51;;;;;;;2.30;1.30;;;;;;;22.73;36.49;98181.97;5003562;28;20032;-71
2022/04/07 06:31:17;;;;;;;3.25;1.70;;;;;;;22.70;37.03;98174.56;5071981;28;20059;-75
2022/04/07 06:33:42;;;;;;;1.45;1.13;;;;;;;22.72;37.10;98171.63;4981452;28;20073;-71
2022/04/07 06:36:08;;;;;;;2.45;1.45;;;;;;;22.73;36.88;98162.63;5071444;28;20040;-70
2022/04/07 06:38:33;;;;;;;2.28;1.60;;;;;;;22.72;37.24;98132.66;5002121;28;20036;-72
2022/04/07 06:41:02;;;;;;;3.20;1.35;;;;;;;22.76;37.13;98096.56;5048613;28;20097;-74
2022/04/07 06:43:28;;;;;;;3.38;1.27;;;;;;;22.68;37.33;98089.13;4989774;28;22839;-69
2022/04/07 06:45:53;;;;;;;4.15;1.70;;;;;;;22.69;37.10;98077.47;5066861;28;20050;-72
2022/04/07 06:48:20;;;;;;;3.53;1.30;;;;;;;22.70;37.34;98071.09;5039374;28;20097;-72
2022/04/07 06:50:45;;;;;;;1.38;1.05;;;;;;;22.67;37.35;98070.84;4992397;28;20040;-73
2022/04/07 06:53:12;;;;;;;3.47;1.42;;;;;;;22.67;37.38;98076.16;5068865;28;20036;-78
2022/04/07 06:55:38;;;;;;;1.63;1.23;;;;;;;22.73;37.32;98088.34;4981123;28;20051;-77
2022/04/07 06:58:06;;;;;;;3.45;2.00;;;;;;;22.72;37.51;98086.75;5032360;28;20024;-72
2022/04/07 07:00:41;;;;;;;3.83;1.75;;;;;;;22.80;37.12;98087.03;5035567;28;20507;-70
2022/04/07 07:03:06;;;;;;;1.90;1.17;;;;;;;22.84;37.11;98053.63;5066472;28;20024;-68
2022/04/07 07:05:36;;;;;;;3.40;1.40;;;;;;;22.98;37.17;98063.69;5016946;28;20886;-69
2022/04/07 07:08:19;;;;;;;2.50;1.30;;;;;;;22.97;36.85;98052.28;5038102;28;20485;-70
2022/04/07 07:10:46;;;;;;;1.52;1.00;;;;;;;23.04;36.62;98059.97;5067238;28;20043;-68
2022/04/07 07:13:13;;;;;;;3.88;1.50;;;;;;;23.04;36.78;98052.81;4998375;28;20035;-70
2022/04/07 07:15:39;;;;;;;1.95;1.48;;;;;;;23.08;36.45;98029.19;5056305;28;20040;-69
2022/04/07 07:18:05;;;;;;;2.05;1.30;;;;;;;23.06;36.60;98053.34;4998295;28;20401;-68
2022/04/07 07:20:31;;;;;;;2.15;1.10;;;;;;;23.04;36.58;98012.22;5070577;28;20041;-70
2022/04/07 07:22:56;;;;;;;1.60;1.20;;;;;;;23.01;36.86;97996.81;4986739;28;20042;-70
2022/04/07 07:25:22;;;;;;;1.92;1.08;;;;;;;23.06;36.87;97979.03;5055908;28;20048;-69
2022/04/07 07:27:47;;;;;;;3.45;1.10;;;;;;;23.07;36.60;97959.38;4982431;28;20040;-70
2022/04/07 07:30:15;;;;;;;2.58;1.60;;;;;;;23.09;36.83;97937.88;5064359;28;20499;-70
2022/04/07 07:32:43;;;;;;;2.50;1.30;;;;;;;23.12;36.52;97956.72;5014515;28;20116;-73
2022/04/07 07:35:09;;;;;;;3.95;1.20;;;;;;;23.15;36.55;97990.66;5062872;28;20064;-71
2022/04/07 07:37:36;;;;;;;2.95;1.45;;;;;;;23.03;36.54;97984.09;5022579;28;21449;-69
2022/04/07 07:40:08;;;;;;;2.70;1.10;;;;;;;23.04;36.96;97975.06;5053460;28;20755;-71
2022/04/07 07:42:37;;;;;;;2.47;1.38;;;;;;;23.16;36.78;97986.97;5033649;28;20043;-70
2022/04/07 07:45:04;;;;;;;2.03;1.10;;;;;;;23.17;36.72;97950.63;5047003;28;20029;-70
2022/04/07 07:47:30;;;;;;;2.67;1.17;;;;;;;23.14;36.65;97969.72;5011452;28;20323;-71
2022/04/07 07:49:56;;;;;;;2.20;1.02;;;;;;;23.18;36.21;97986.72;5023642;28;20779;-71
2022/04/07 07:52:22;;;;;;;2.70;1.05;;;;;;;23.14;36.29;97977.66;5046014;28;20046;-71
2022/04/07 07:54:47;;;;;;;3.05;1.15;;;;;;;23.19;36.09;97988.28;5048480;28;22188;-72
2022/04/07 07:57:13;;;;;;;4.05;1.40;;;;;;;23.17;35.84;97985.91;5052821;28;20032;-72
2022/04/07 07:59:39;;;;;;;1.60;0.80;;;;;;;23.13;35.53;97981.38;5051409;28;20039;-75
2022/04/07 08:02:04;;;;;;;2.25;1.25;;;;;;;23.13;35.47;97981.38;5035027;28;20398;-73
2022/04/07 08:04:30;;;;;;;1.15;0.90;;;;;;;23.13;35.35;97979.53;5033724;28;20071;-74
2022/04/07 08:06:56;;;;;;;1.52;0.73;;;;;;;23.09;35.15;97986.44;5055628;28;20051;-73
2022/04/07 08:09:21;;;;;;;1.42;1.23;;;;;;;22.78;35.54;97975.06;5051142;28;20941;-69
2022/04/07 08:11:47;;;;;;;3.38;1.17;;;;;;;22.98;35.35;97978.75;5045260;28;21066;-71
2022/04/07 08:14:12;;;;;;;1.98;1.02;;;;;;;23.08;35.51;97994.69;5037674;28;20101;-70
2022/04/07 08:16:39;;;;;;;3.65;1.40;;;;;;;23.03;35.05;97984.88;5076634;28;20051;-68
2022/04/07 08:19:05;;;;;;;2.30;1.15;;;;;;;22.80;34.57;97967.66;5017608;28;20111;-69
2022/04/07 08:21:31;;;;;;;1.70;0.77;;;;;;;22.71;34.65;97952.53;5073744;28;20059;-75
2022/04/07 08:23:57;;;;;;;1.48;0.73;;;;;;;22.61;35.77;97972.69;5029299;28;20970;-77
2022/04/07 08:26:22;;;;;;;1.95;1.02;;;;;;;22.55;36.05;97965.78;5072128;28;20048;-77
2022/04/07 08:28:48;;;;;;;2.63;0.73;;;;;;;22.54;35.88;97966.88;5016021;28;20410;-74
2022/04/07 08:31:14;;;;;;;1.33;0.98;;;;;;;22.54;35.90;97969.50;5072418;28;20108;-77
2022/04/07 08:33:40;;;;;;;2.97;1.23;;;;;;;22.50;36.00;97971.13;5041455;28;20052;-77
2022/04/07 08:36:05;;;;;;;2.60;1.02;;;;;;;22.53;35.98;97967.91;5059412;28;20408;-77
2022/04/07 08:38:31;;;;;;;2.25;1.00;;;;;;;22.53;36.00;97964.47;5052301;28;20164;-76
2022/04/07 08:40:57;;;;;;;2.13;0.90;;;;;;;22.51;35.80;97964.75;5040045;28;20117;-76
2022/04/07 08:43:23;;;;;;;2.10;1.02;;;;;;;22.46;35.85;97942.75;5056259;28;20219;-76
2022/04/07 08:45:49;;;;;;;2.70;1.10;;;;;;;22.52;35.99;97952.28;5019988;28;20044;-76
2022/04/07 08:48:15;;;;;;;2.55;0.90;;;;;;;22.50;36.04;97954.41;5058459;28;20128;-77
2022/04/07 08:50:42;;;;;;;2.13;1.00;;;;;;;22.52;35.70;97946.97;5028096;28;20044;-75
2022/04/07 08:53:09;;;;;;;3.97;1.00;;;;;;;22.50;36.00;97947.25;5072458;28;20047;-77
2022/04/07 08:55:34;;;;;;;1.48;0.82;;;;;;;22.43;35.76;97943.25;5027274;28;20038;-76
2022/04/07 08:58:04;;;;;;;2.33;1.33;;;;;;;22.47;35.61;97939.84;5057755;28;20040;-76
2022/04/07 09:00:29;;;;;;;2.45;0.80;;;;;;;22.46;35.95;97940.88;5015582;28;20035;-77
2022/04/07 09:02:55;;;;;;;2.83;0.82;;;;;;;22.59;35.73;97937.69;5072303;28;20036;-72
2022/04/07 09:05:25;;;;;;;2.03;0.90;;;;;;;22.75;35.43;97935.81;5043559;28;20888;-70
2022/04/07 09:07:56;;;;;;;2.97;1.40;;;;;;;22.92;35.42;97932.88;5077612;28;20097;-71
2022/04/07 09:10:24;;;;;;;1.95;0.98;;;;;;;22.95;35.39;97936.84;5033675;28;20354;-69
2022/04/07 09:12:51;;;;;;;5.05;0.90;;;;;;;22.99;35.28;97928.09;5069317;28;20073;-74
2022/04/07 09:15:18;;;;;;;0.70;0.68;;;;;;;23.02;35.27;97940.03;5041787;28;20035;-68
2022/04/07 09:17:55;;;;;;;2.40;1.30;;;;;;;22.98;35.55;97931.81;5051051;28;20051;-68
2022/04/07 09:20:24;;;;;;;1.75;1.15;;;;;;;23.07;35.45;97935.50;5050373;28;20563;-72
2022/04/07 09:23:05;;;;;;;2.93;1.17;;;;;;;23.09;35.58;97929.91;5047747;28;20047;-68
2022/04/07 09:25:31;;;;;;;2.10;1.13;;;;;;;23.12;35.54;97921.41;5021981;28;20489;-72
2022/04/07 09:28:00;;;;;;;1.65;0.73;;;;;;;23.13;35.62;97928.31;5020415;28;20036;-68
2022/04/07 09:30:26;;;;;;;0.57;0.47;;;;;;;23.14;35.83;97924.59;5020771;28;20559;-68
2022/04/07 09:32:51;;;;;;;4.78;1.17;;;;;;;23.20;35.69;97902.28;5034825;28;20040;-69
2022/04/07 09:35:17;;;;;;;3.25;0.95;;;;;;;23.15;35.46;97916.34;5047873;28;20486;-69
2022/04/07 09:37:43;;;;;;;1.92;1.08;;;;;;;23.24;35.31;97913.16;5035676;28;20851;-68
2022/04/07 09:40:13;;;;;;;3.03;0.98;;;;;;;23.21;35.31;97925.91;5032056;28;20048;-69
2022/04/07 09:42:42;;;;;;;6.60;1.13;;;;;;;23.16;35.54;97910.00;5050003;28;20388;-69
2022/04/07 09:45:12;;;;;;;3.85;1.63;;;;;;;22.99;35.48;97893.59;5032321;28;20131;-77
2022/04/07 09:47:45;;;;;;;2.92;0.88;;;;;;;22.93;35.86;97913.25;5054165;28;25713;-77
2022/04/07 09:50:21;;;;;;;1.35;0.77;;;;;;;22.91;35.71;97902.09;5036780;28;20096;-77
2022/04/07 09:53:03;;;;;;;2.13;1.15;;;;;;;22.83;35.84;97897.38;5075984;28;20039;-78
2022/04/07 09:55:36;;;;;;;1.85;0.98;;;;;;;22.80;35.94;97900.50;5009665;28;20544;-75
2022/04/07 09:58:06;;;;;;;2.50;1.27;;;;;;;22.79;35.42;97888.31;5074606;28;20024;-73
2022/04/07 10:00:32;;;;;;;;;;;;;;;22.78;35.36;97882.19;4981826;28;21534;-75
2022/04/07 10:02:58;;;;;;;2.08;1.30;;;;;;;22.74;35.35;97880.38;5069797;28;19920;-76
2022/04/07 10:05:24;;;;;;;3.80;1.10;;;;;;;22.73;35.24;97878.78;4995983;28;20035;-76
2022/04/07 10:07:51;;;;;;;2.05;1.05;;;;;;;22.64;34.92;97872.44;5067166;28;20040;-76
2022/04/07 10:10:18;;;;;;;6.43;1.60;;;;;;;22.87;34.52;97882.50;5018742;28;20044;-67
2022/04/07 10:12:47;;;;;;;5.03;2.05;;;;;;;22.89;34.40;97875.06;5057801;28;20043;-67
2022/04/07 10:15:14;;;;;;;2.95;1.30;;;;;;;22.72;35.49;97867.38;5040537;28;20036;-74
2022/04/07 10:17:40;;;;;;;5.63;1.30;;;;;;;22.68;34.42;97871.63;5056594;28;21720;-74
2022/04/07 10:20:09;;;;;;;6.47;1.58;;;;;;;22.56;34.54;97882.53;5044774;28;20036;-72
2022/04/07 10:22:52;;;;;;;8.38;1.83;;;;;;;22.62;35.04;97870.03;5021797;28;20096;-72
2022/04/07 10:25:19;;;;;;;3.25;0.90;;;;;;;22.59;35.27;97871.38;5056443;28;21082;-72
2022/04/07 10:27:51;;;;;;;3.90;1.20;;;;;;;22.65;35.37;97897.91;5031335;28;20052;-75
2022/04/07 10:30:17;;;;;;;8.18;1.45;;;;;;;22.54;34.92;97871.41;5058301;28;20024;-74
2022/04/07 10:32:49;;;;;;;3.47;1.58;;;;;;;22.63;34.94;97881.47;5013813;28;20059;-75
2022/04/07 10:35:37;;;;;;;4.07;1.38;;;;;;;22.63;34.86;97876.16;5052657;28;20653;-73
2022/04/07 10:38:07;;;;;;;5.05;1.20;;;;;;;22.63;34.99;97900.84;5032417;28;20498;-73
2022/04/07 10:40:37;;;;;;;3.65;1.50;;;;;;;22.61;34.79;97890.47;5034077;28;26529;-75
2022/04/07 10:43:13;;;;;;;4.50;1.30;;;;;;;22.63;34.60;97889.44;5075169;28;20039;-74
2022/04/07 10:45:47;;;;;;;3.55;1.30;;;;;;;22.66;34.72;97883.59;5024363;28;20656;-75
2022/04/07 10:48:23;;;;;;;5.13;1.20;;;;;;;22.56;34.55;97879.88;5078861;28;20036;-74
2022/04/07 10:51:02;;;;;;;2.55;1.08;;;;;;;22.64;34.67;97877.75;5027951;28;20044;-75
2022/04/07 10:53:29;;;;;;;3.60;1.48;;;;;;;22.55;34.55;97880.94;5054557;28;20043;-77
2022/04/07 10:56:10;;;;;;;4.47;1.60;;;;;;;22.57;35.02;97886.75;5023880;28;20040;-76
2022/04/07 10:58:38;;;;;;;5.07;1.80;;;;;;;22.52;34.85;97881.47;5070321;28;20751;-75
2022/04/07 11:01:04;;;;;;;4.00;1.20;;;;;;;22.50;34.62;97891.56;5023717;28;20798;-74
2022/04/07 11:03:29;;;;;;;3.47;1.50;;;;;;;22.60;35.08;97877.47;5055348;28;20040;-73
2022/04/07 11:06:06;;;;;;;4.65;1.55;;;;;;;22.58;35.09;97885.69;5057156;28;20049;-74
2022/04/07 11:08:32;;;;;;;3.08;1.50;;;;;;;22.56;34.82;97903.75;5039351;28;20620;-75
2022/04/07 11:10:58;;;;;;;2.45;1.50;;;;;;;22.52;34.75;97900.03;5051419;28;20040;-73
2022/04/07 11:13:43;;;;;;;5.22;1.35;;;;;;;22.51;35.07;97918.88;5033625;28;20052;-74
2022/04/07 11:16:36;;;;;;;6.00;1.60;;;;;;;22.56;34.90;97913.56;5063548;28;20040;-74
2022/04/07 11:19:04;;;;;;;3.75;1.33;;;;;;;22.61;34.88;97901.06;5020290;28;20056;-74
2022/04/07 11:21:48;;;;;;;4.60;1.50;;;;;;;22.51;34.77;97889.69;5065871;28;20794;-74
2022/04/07 11:24:23;;;;;;;3.30;1.42;;;;;;;22.53;35.10;97893.66;5029887;28;20375;-74
2022/04/07 11:26:51;;;;;;;2.90;1.40;;;;;;;22.51;35.13;97884.41;5063041;28;20454;-74
2022/04/07 11:29:31;;;;;;;2.92;1.02;;;;;;;22.53;34.91;97869.00;5021334;28;20032;-74
2022/04/07 11:32:05;;;;;;;;;;;;;;;22.53;34.77;97880.41;5053112;28;20362;-74
2022/04/07 11:34:40;;;;;;;3.03;1.33;;;;;;;22.54;34.95;97878.56;5057179;28;20160;-75